createdAt,value
2017-11-16T00:00:07.541Z,8.40
2017-11-16T00:03:09.802Z,8.30
2017-11-16T00:06:11.809Z,8.30
2017-11-16T00:09:14.079Z,8.30
2017-11-16T00:12:16.088Z,8.30
2017-11-16T00:15:18.379Z,8.30
2017-11-16T00:18:20.434Z,8.30
2017-11-16T00:21:22.709Z,8.30
2017-11-16T00:24:24.604Z,8.30
2017-11-16T00:27:26.927Z,8.30
2017-11-16T00:30:29.591Z,8.30
2017-11-16T00:33:31.928Z,8.30
2017-11-16T00:36:33.887Z,8.30
2017-11-16T00:39:36.191Z,8.30
2017-11-16T00:42:38.963Z,8.30
2017-11-16T00:45:41.287Z,8.30
2017-11-16T00:48:43.946Z,8.30
2017-11-16T00:51:46.285Z,8.30
2017-11-16T00:54:49.063Z,8.30
2017-11-16T00:57:51.367Z,8.30
2017-11-16T01:00:54.784Z,8.20
2017-11-16T01:03:57.051Z,8.20
2017-11-16T01:06:59.018Z,8.20
2017-11-16T01:10:01.348Z,8.20
2017-11-16T01:13:04.143Z,8.20
2017-11-16T01:16:06.554Z,8.20
2017-11-16T01:19:09.342Z,8.20
2017-11-16T01:22:12.444Z,8.20
2017-11-16T01:25:14.381Z,8.20
2017-11-16T01:28:16.723Z,8.10
2017-11-16T01:31:19.425Z,8.20
2017-11-16T01:34:21.709Z,8.20
2017-11-16T01:37:23.689Z,8.20
2017-11-16T01:40:26.805Z,8.20
2017-11-16T01:43:28.739Z,8.20
2017-11-16T01:46:31.096Z,8.20
2017-11-16T01:49:33.882Z,8.20
2017-11-16T01:52:36.151Z,8.20
2017-11-16T01:55:38.047Z,8.20
2017-11-16T01:58:40.310Z,8.20
2017-11-16T02:01:42.540Z,8.20
2017-11-16T02:04:45.613Z,8.20
2017-11-16T02:07:47.597Z,8.10
2017-11-16T02:10:49.920Z,8.20
2017-11-16T02:13:52.588Z,8.20
2017-11-16T02:16:54.830Z,8.10
2017-11-16T02:19:56.758Z,8.10
2017-11-16T02:22:59.042Z,8.10
2017-11-16T02:26:00.942Z,8.10
2017-11-16T02:29:04.718Z,8.10
2017-11-16T02:32:06.631Z,8.10
2017-11-16T02:35:08.955Z,8.10
2017-11-16T02:38:10.861Z,8.10
2017-11-16T02:41:13.100Z,8.10
2017-11-16T02:44:15.020Z,8.20
2017-11-16T02:47:18.159Z,8.20
2017-11-16T02:50:20.063Z,8.10
2017-11-16T02:53:22.398Z,8.20
2017-11-16T02:56:25.170Z,8.20
2017-11-16T02:59:28.259Z,8.10
2017-11-16T03:02:30.290Z,8.20
2017-11-16T03:05:33.367Z,8.20
2017-11-16T03:08:35.401Z,8.10
2017-11-16T03:11:38.512Z,8.10
2017-11-16T03:14:41.171Z,8.10
2017-11-16T03:17:43.441Z,8.10
2017-11-16T03:20:45.458Z,8.10
2017-11-16T03:23:48.583Z,8.10
2017-11-16T03:26:51.257Z,8.20
2017-11-16T03:29:53.530Z,8.10
2017-11-16T03:32:55.539Z,8.20
2017-11-16T03:35:57.818Z,8.20
2017-11-16T03:38:59.782Z,8.20
2017-11-16T03:42:02.107Z,8.20
2017-11-16T03:45:04.036Z,8.20
2017-11-16T03:48:06.356Z,8.20
2017-11-16T03:51:08.551Z,8.10
2017-11-16T03:54:10.837Z,8.20
2017-11-16T03:57:12.730Z,8.20
2017-11-16T04:00:14.998Z,8.20
2017-11-16T04:03:16.894Z,8.20
2017-11-16T04:06:19.177Z,8.10
2017-11-16T04:09:21.192Z,8.10
2017-11-16T04:12:23.721Z,8.10
2017-11-16T04:15:25.641Z,8.10
2017-11-16T04:18:27.954Z,8.10
2017-11-16T04:21:29.859Z,8.10
2017-11-16T04:24:32.370Z,8.10
2017-11-16T04:27:34.287Z,8.10
2017-11-16T04:30:36.606Z,8.00
2017-11-16T04:33:39.383Z,8.00
2017-11-16T04:36:42.222Z,8.00
2017-11-16T04:39:45.099Z,8.00
2017-11-16T04:42:48.101Z,8.00
2017-11-16T04:45:50.102Z,8.00
2017-11-16T04:48:53.212Z,8.00
2017-11-16T04:51:55.167Z,8.00
2017-11-16T04:54:57.688Z,8.00
2017-11-16T04:57:59.584Z,8.00
2017-11-16T05:01:02.657Z,8.00
2017-11-16T05:04:05.388Z,8.00
2017-11-16T05:07:08.500Z,8.00
2017-11-16T05:10:11.287Z,8.00
2017-11-16T05:13:13.571Z,8.00
2017-11-16T05:16:15.550Z,8.00
2017-11-16T05:19:17.794Z,8.00
2017-11-16T05:22:19.722Z,8.00
2017-11-16T05:25:22.031Z,8.00
2017-11-16T05:28:24.721Z,8.00
2017-11-16T05:31:26.978Z,8.00
2017-11-16T05:34:28.996Z,8.00
2017-11-16T05:37:32.079Z,8.00
2017-11-16T05:40:34.055Z,8.00
2017-11-16T05:43:36.354Z,8.00
2017-11-16T05:46:39.092Z,8.00
2017-11-16T05:49:42.183Z,8.00
2017-11-16T05:52:44.101Z,8.00
2017-11-16T05:55:46.470Z,8.00
2017-11-16T05:58:49.154Z,8.00
2017-11-16T06:01:51.416Z,8.00
2017-11-16T06:04:53.337Z,8.00
2017-11-16T06:07:56.414Z,8.00
2017-11-16T06:10:58.319Z,7.90
2017-11-16T06:14:00.566Z,8.00
2017-11-16T06:17:02.641Z,8.00
2017-11-16T06:20:04.959Z,8.00
2017-11-16T06:23:06.981Z,7.90
2017-11-16T06:26:09.231Z,7.90
2017-11-16T06:29:11.176Z,8.00
2017-11-16T06:32:13.534Z,7.90
2017-11-16T06:35:15.525Z,7.90
2017-11-16T06:38:18.611Z,7.90
2017-11-16T06:41:20.592Z,7.90
2017-11-16T06:44:22.816Z,7.90
2017-11-16T06:47:25.504Z,7.90
2017-11-16T06:50:28.598Z,7.90
2017-11-16T06:53:30.593Z,7.90
2017-11-16T06:56:32.984Z,7.90
2017-11-16T06:59:35.657Z,7.90
2017-11-16T07:02:37.979Z,7.90
2017-11-16T07:05:40.854Z,7.90
2017-11-16T07:08:43.267Z,7.90
2017-11-16T07:11:45.343Z,7.90
2017-11-16T07:14:47.311Z,7.90
2017-11-16T07:17:49.297Z,7.90
2017-11-16T07:20:51.304Z,7.90
2017-11-16T07:23:53.229Z,7.90
2017-11-16T07:26:55.272Z,7.90
2017-11-16T07:29:57.230Z,7.90
2017-11-16T07:32:59.313Z,7.90
2017-11-16T07:36:01.233Z,7.90
2017-11-16T07:39:03.944Z,8.00
2017-11-16T07:42:05.861Z,7.90
2017-11-16T07:45:07.800Z,8.00
2017-11-16T07:48:10.461Z,8.00
2017-11-16T07:51:12.776Z,7.90
2017-11-16T07:54:15.475Z,8.00
2017-11-16T07:57:17.418Z,8.00
2017-11-16T08:00:19.425Z,8.00
2017-11-16T08:03:21.431Z,8.00
2017-11-16T08:06:24.099Z,8.10
2017-11-16T08:09:26.178Z,8.10
2017-11-16T08:12:28.103Z,8.10
2017-11-16T08:15:30.815Z,8.10
2017-11-16T08:18:33.603Z,8.20
2017-11-16T08:21:36.406Z,8.20
2017-11-16T08:24:39.072Z,8.20
2017-11-16T08:27:41.015Z,8.20
2017-11-16T08:30:42.935Z,8.30
2017-11-16T08:33:44.914Z,8.30
2017-11-16T08:36:46.905Z,8.30
2017-11-16T08:39:48.918Z,8.30
2017-11-16T08:42:51.595Z,8.30
2017-11-16T08:45:53.535Z,8.30
2017-11-16T08:48:55.463Z,8.30
2017-11-16T08:51:58.899Z,8.20
2017-11-16T08:55:01.568Z,8.20
2017-11-16T08:58:03.494Z,8.20
2017-11-16T09:01:05.414Z,8.20
2017-11-16T09:04:07.359Z,8.20
2017-11-16T09:07:09.275Z,8.20
2017-11-16T09:10:11.229Z,8.20
2017-11-16T09:13:13.230Z,8.20
2017-11-16T09:16:15.179Z,8.20
2017-11-16T09:19:17.842Z,8.30
2017-11-16T09:22:20.364Z,8.30
2017-11-16T09:25:23.024Z,8.20
2017-11-16T09:28:24.972Z,8.30
2017-11-16T09:31:26.873Z,8.30
2017-11-16T09:34:29.644Z,8.30
2017-11-16T09:37:31.603Z,8.30
2017-11-16T09:40:34.616Z,8.20
2017-11-16T09:43:37.283Z,8.20
2017-11-16T09:46:39.297Z,8.20
2017-11-16T09:49:41.975Z,8.10
2017-11-16T09:52:43.987Z,8.10
2017-11-16T09:55:46.706Z,8.10
2017-11-16T09:58:49.541Z,8.10
2017-11-16T10:01:51.440Z,8.00
2017-11-16T10:04:53.355Z,8.00
2017-11-16T10:07:56.617Z,8.00
2017-11-16T10:10:58.615Z,8.00
2017-11-16T10:14:00.522Z,8.00
2017-11-16T10:17:02.500Z,8.10
2017-11-16T10:20:05.123Z,8.10
2017-11-16T10:23:07.879Z,8.20
2017-11-16T10:26:09.869Z,8.20
2017-11-16T10:29:11.808Z,8.30
2017-11-16T10:32:13.864Z,8.30
2017-11-16T10:35:17.585Z,8.30
2017-11-16T10:38:20.266Z,8.40
2017-11-16T10:41:23.073Z,8.40
2017-11-16T10:44:24.982Z,8.40
2017-11-16T10:47:26.963Z,8.40
2017-11-16T10:50:29.643Z,8.40
2017-11-16T10:53:31.567Z,8.40
2017-11-16T10:56:33.504Z,8.40
2017-11-16T10:59:35.452Z,8.40
2017-11-16T11:02:37.464Z,8.30
2017-11-16T11:05:40.359Z,8.40
2017-11-16T11:08:42.440Z,8.40
2017-11-16T11:11:44.452Z,8.40
2017-11-16T11:14:47.247Z,8.40
2017-11-16T11:17:49.207Z,8.40
2017-11-16T11:20:51.219Z,8.40
2017-11-16T11:23:53.161Z,8.40
2017-11-16T11:26:55.166Z,8.50
2017-11-16T11:29:57.114Z,8.50
2017-11-16T11:32:59.106Z,8.50
2017-11-16T11:36:01.078Z,8.50
2017-11-16T11:39:03.056Z,8.60
2017-11-16T11:42:05.094Z,8.60
2017-11-16T11:45:06.985Z,8.60
2017-11-16T11:48:09.692Z,8.60
2017-11-16T11:51:12.415Z,8.60
2017-11-16T11:54:14.430Z,8.70
2017-11-16T11:57:16.375Z,8.70
2017-11-16T12:00:18.294Z,8.80
2017-11-16T12:03:20.521Z,8.80
2017-11-16T12:06:23.208Z,8.90
2017-11-16T12:09:25.127Z,8.90
2017-11-16T12:12:27.178Z,9.00
2017-11-16T12:15:29.850Z,9.20
2017-11-16T12:18:31.789Z,9.10
2017-11-16T12:21:33.707Z,9.20
2017-11-16T12:24:35.698Z,9.30
2017-11-16T12:27:37.726Z,9.30
2017-11-16T12:30:39.667Z,9.30
2017-11-16T12:33:41.575Z,9.40
2017-11-16T12:36:43.496Z,9.40
2017-11-16T12:39:45.400Z,9.40
2017-11-16T12:42:47.346Z,9.30
2017-11-16T12:45:49.273Z,9.30
2017-11-16T12:48:51.317Z,9.30
2017-11-16T12:51:53.249Z,9.30
2017-11-16T12:54:55.283Z,9.30
2017-11-16T12:57:57.183Z,9.30
2017-11-16T13:00:59.205Z,9.30
2017-11-16T13:04:01.132Z,9.40
2017-11-16T13:07:03.048Z,9.40
2017-11-16T13:10:04.972Z,9.30
2017-11-16T13:13:07.765Z,9.30
2017-11-16T13:16:10.425Z,9.40
2017-11-16T13:19:12.366Z,9.30
2017-11-16T13:22:14.291Z,9.40
2017-11-16T13:25:16.385Z,9.40
2017-11-16T13:28:18.418Z,9.40
2017-11-16T13:31:22.094Z,9.40
2017-11-16T13:34:24.083Z,9.40
2017-11-16T13:37:26.157Z,9.40
2017-11-16T13:40:28.172Z,9.40
2017-11-16T13:43:31.051Z,9.30
2017-11-16T13:46:33.045Z,9.30
2017-11-16T13:49:35.122Z,9.30
2017-11-16T13:52:37.204Z,9.30
2017-11-16T13:55:39.133Z,9.30
2017-11-16T13:58:41.907Z,9.30
2017-11-16T14:01:45.931Z,9.40
2017-11-16T14:04:48.622Z,9.30
2017-11-16T14:07:50.642Z,9.40
2017-11-16T14:10:53.389Z,9.50
2017-11-16T14:13:55.416Z,9.50
2017-11-16T14:16:58.084Z,9.50
2017-11-16T14:20:00.006Z,9.50
2017-11-16T14:23:02.776Z,9.40
2017-11-16T14:26:04.754Z,9.40
2017-11-16T14:29:06.730Z,9.40
2017-11-16T14:32:08.735Z,9.40
2017-11-16T14:35:10.661Z,9.30
2017-11-16T14:38:12.581Z,9.30
2017-11-16T14:41:14.478Z,9.20
2017-11-16T14:44:16.451Z,9.20
2017-11-16T14:47:18.459Z,9.20
2017-11-16T14:50:21.262Z,9.20
2017-11-16T14:53:24.066Z,9.20
2017-11-16T14:56:26.801Z,9.20
2017-11-16T14:59:28.719Z,9.20
2017-11-16T15:02:30.730Z,9.10
2017-11-16T15:05:32.706Z,9.10
2017-11-16T15:08:34.654Z,9.10
2017-11-16T15:11:36.793Z,9.10
2017-11-16T15:14:39.487Z,9.10
2017-11-16T15:17:42.242Z,9.10
2017-11-16T15:20:44.255Z,9.10
2017-11-16T15:23:46.243Z,9.10
2017-11-16T15:26:48.169Z,9.10
2017-11-16T15:29:50.076Z,9.10
2017-11-16T15:32:52.084Z,9.10
2017-11-16T15:35:54.018Z,9.10
2017-11-16T15:38:56.047Z,9.00
2017-11-16T15:41:57.967Z,9.00
2017-11-16T15:45:00.017Z,9.00
2017-11-16T15:48:02.016Z,9.00
2017-11-16T15:51:04.790Z,9.00
2017-11-16T15:54:06.708Z,9.00
2017-11-16T15:57:09.467Z,8.90
2017-11-16T16:00:11.506Z,8.90
2017-11-16T16:03:13.539Z,8.90
2017-11-16T16:06:15.538Z,8.90
2017-11-16T16:09:17.499Z,8.90
2017-11-16T16:12:20.411Z,8.90
2017-11-16T16:15:22.423Z,8.90
2017-11-16T16:18:25.108Z,8.80
2017-11-16T16:21:27.089Z,8.80
2017-11-16T16:24:29.332Z,8.80
2017-11-16T16:27:31.394Z,8.80
2017-11-16T16:30:34.061Z,8.80
2017-11-16T16:33:36.031Z,8.80
2017-11-16T16:36:37.955Z,8.80
2017-11-16T16:39:40.734Z,8.70
2017-11-16T16:42:42.790Z,8.70
2017-11-16T16:45:44.782Z,8.60
2017-11-16T16:48:46.698Z,8.60
2017-11-16T16:51:49.489Z,8.60
2017-11-16T16:54:51.470Z,8.60
2017-11-16T16:57:54.198Z,8.60
2017-11-16T17:00:56.122Z,8.60
2017-11-16T17:03:58.143Z,8.60
2017-11-16T17:07:00.048Z,8.50
2017-11-16T17:10:01.984Z,8.50
2017-11-16T17:13:03.960Z,8.50
2017-11-16T17:16:05.940Z,8.50
2017-11-16T17:19:07.830Z,8.40
2017-11-16T17:22:09.832Z,8.40
2017-11-16T17:25:11.764Z,8.40
2017-11-16T17:28:13.695Z,8.40
2017-11-16T17:31:15.670Z,8.50
2017-11-16T17:34:17.668Z,8.50
2017-11-16T17:37:20.359Z,8.50
2017-11-16T17:40:22.328Z,8.50
2017-11-16T17:43:25.336Z,8.50
2017-11-16T17:46:27.341Z,8.50
2017-11-16T17:49:29.267Z,8.50
2017-11-16T17:52:31.275Z,8.50
2017-11-16T17:55:33.210Z,8.50
2017-11-16T17:58:35.248Z,8.50
2017-11-16T18:01:37.387Z,8.60
2017-11-16T18:04:39.437Z,8.50
2017-11-16T18:07:41.392Z,8.50
2017-11-16T18:10:43.413Z,8.50
2017-11-16T18:13:46.202Z,8.50
2017-11-16T18:16:48.377Z,8.50
2017-11-16T18:19:50.378Z,8.50
2017-11-16T18:22:53.059Z,8.60
2017-11-16T18:25:55.082Z,8.60
2017-11-16T18:28:57.943Z,8.60
2017-11-16T18:31:59.961Z,8.60
2017-11-16T18:35:02.731Z,8.60
2017-11-16T18:38:04.743Z,8.60
2017-11-16T18:41:07.541Z,8.60
2017-11-16T18:44:09.469Z,8.60
2017-11-16T18:47:11.412Z,8.60
2017-11-16T18:50:14.204Z,8.70
2017-11-16T18:53:16.188Z,8.70
2017-11-16T18:56:18.957Z,8.60
2017-11-16T18:59:20.931Z,8.60
2017-11-16T19:02:22.967Z,8.70
2017-11-16T19:05:25.746Z,8.70
2017-11-16T19:08:27.648Z,8.70
2017-11-16T19:11:29.631Z,8.70
2017-11-16T19:14:32.333Z,8.60
2017-11-16T19:17:34.283Z,8.60
2017-11-16T19:20:36.203Z,8.60
2017-11-16T19:23:38.975Z,8.50
2017-11-16T19:26:40.889Z,8.50
2017-11-16T19:29:43.755Z,8.50
2017-11-16T19:32:45.750Z,8.50
2017-11-16T19:35:47.733Z,8.50
2017-11-16T19:38:49.644Z,8.50
2017-11-16T19:41:52.414Z,8.50
2017-11-16T19:44:55.283Z,8.50
2017-11-16T19:47:57.232Z,8.50
2017-11-16T19:50:59.916Z,8.60
2017-11-16T19:54:01.918Z,8.50
2017-11-16T19:57:04.067Z,8.50
2017-11-16T20:00:06.038Z,8.60
2017-11-16T20:03:08.041Z,8.60
2017-11-16T20:06:10.012Z,8.60
2017-11-16T20:09:12.012Z,8.60
2017-11-16T20:12:14.718Z,8.60
2017-11-16T20:15:16.701Z,8.60
2017-11-16T20:18:18.699Z,8.60
2017-11-16T20:21:21.460Z,8.60
2017-11-16T20:24:23.468Z,8.60
2017-11-16T20:27:25.394Z,8.60
2017-11-16T20:30:27.435Z,8.60
2017-11-16T20:33:29.394Z,8.60
2017-11-16T20:36:31.315Z,8.70
2017-11-16T20:39:33.995Z,8.70
2017-11-16T20:42:35.951Z,8.70
2017-11-16T20:45:37.979Z,8.70
2017-11-16T20:48:40.690Z,8.70
2017-11-16T20:51:42.628Z,8.70
2017-11-16T20:54:44.648Z,8.70
2017-11-16T20:57:47.331Z,8.70
2017-11-16T21:00:49.316Z,8.70
2017-11-16T21:03:51.326Z,8.70
2017-11-16T21:06:54.113Z,8.70
2017-11-16T21:09:56.895Z,8.70
2017-11-16T21:12:58.838Z,8.70
2017-11-16T21:16:00.742Z,8.70
2017-11-16T21:19:02.670Z,8.70
2017-11-16T21:22:05.460Z,8.70
2017-11-16T21:25:07.427Z,8.70
2017-11-16T21:28:10.109Z,8.80
2017-11-16T21:31:12.143Z,8.70
2017-11-16T21:34:14.901Z,8.70
2017-11-16T21:37:17.792Z,8.70
2017-11-16T21:40:19.799Z,8.70
2017-11-16T21:43:21.790Z,8.70
2017-11-16T21:46:23.760Z,8.70
2017-11-16T21:49:26.510Z,8.70
2017-11-16T21:52:28.411Z,8.70
2017-11-16T21:55:30.327Z,8.70
2017-11-16T21:58:32.243Z,8.70
2017-11-16T22:01:34.964Z,8.80
2017-11-16T22:04:36.893Z,8.80
2017-11-16T22:07:38.887Z,8.80
2017-11-16T22:10:41.050Z,8.80
2017-11-16T22:13:43.071Z,8.80
2017-11-16T22:16:45.026Z,8.80
2017-11-16T22:19:47.009Z,8.80
2017-11-16T22:22:48.924Z,8.80
2017-11-16T22:25:51.712Z,8.80
2017-11-16T22:28:53.771Z,8.80
2017-11-16T22:31:55.699Z,8.80
2017-11-16T22:34:58.466Z,8.80
2017-11-16T22:38:00.466Z,8.80
2017-11-16T22:41:02.456Z,8.80
2017-11-16T22:44:04.411Z,8.80
2017-11-16T22:47:06.347Z,8.80
2017-11-16T22:50:08.387Z,8.80
2017-11-16T22:53:10.286Z,8.80
2017-11-16T22:56:12.355Z,8.80
2017-11-16T22:59:14.282Z,8.80
2017-11-16T23:02:16.276Z,8.80
2017-11-16T23:05:18.198Z,8.80
2017-11-16T23:08:20.193Z,8.80
2017-11-16T23:11:23.115Z,8.80
2017-11-16T23:14:25.801Z,8.90
2017-11-16T23:17:27.729Z,8.90
2017-11-16T23:20:29.787Z,8.90
2017-11-16T23:23:32.446Z,8.90
2017-11-16T23:26:34.463Z,8.90
2017-11-16T23:29:37.250Z,8.90
2017-11-16T23:32:39.219Z,8.90
2017-11-16T23:35:41.204Z,8.90
2017-11-16T23:38:43.126Z,8.90
2017-11-16T23:41:45.886Z,8.90
2017-11-16T23:44:47.862Z,8.90
2017-11-16T23:47:49.883Z,8.90
2017-11-16T23:50:52.665Z,8.80
2017-11-16T23:53:54.559Z,8.90
2017-11-16T23:56:56.497Z,8.80
2017-11-16T23:59:58.398Z,8.80
